sensor_id;sensor_type;location;lat;lon;timestamp;P1;durP1;ratioP1;P2;durP2;ratioP2
48951;SDS011;34758;42.148;24.744;2023-04-15T00:00:19;7.28;;;3.05;;
48951;SDS011;34758;42.148;24.744;2023-04-15T00:02:47;4.57;;;2.65;;
48951;SDS011;34758;42.148;24.744;2023-04-15T00:05:14;6.68;;;2.70;;
48951;SDS011;34758;42.148;24.744;2023-04-15T00:07:43;5.47;;;3.05;;
48951;SDS011;34758;42.148;24.744;2023-04-15T00:10:11;4.57;;;2.85;;
48951;SDS011;34758;42.148;24.744;2023-04-15T00:12:38;5.25;;;2.47;;
48951;SDS011;34758;42.148;24.744;2023-04-15T00:15:06;5.18;;;2.58;;
48951;SDS011;34758;42.148;24.744;2023-04-15T00:17:34;4.10;;;3.05;;
48951;SDS011;34758;42.148;24.744;2023-04-15T00:20:03;3.53;;;2.50;;
48951;SDS011;34758;42.148;24.744;2023-04-15T00:22:33;3.75;;;3.03;;
48951;SDS011;34758;42.148;24.744;2023-04-15T00:25:03;3.40;;;2.65;;
48951;SDS011;34758;42.148;24.744;2023-04-15T00:27:30;6.95;;;3.22;;
48951;SDS011;34758;42.148;24.744;2023-04-15T00:29:57;5.95;;;3.08;;
48951;SDS011;34758;42.148;24.744;2023-04-15T00:32:24;3.30;;;2.85;;
48951;SDS011;34758;42.148;24.744;2023-04-15T00:34:51;5.53;;;2.58;;
48951;SDS011;34758;42.148;24.744;2023-04-15T00:37:17;5.03;;;2.95;;
48951;SDS011;34758;42.148;24.744;2023-04-15T00:39:45;4.43;;;2.95;;
48951;SDS011;34758;42.148;24.744;2023-04-15T00:42:13;4.88;;;2.70;;
48951;SDS011;34758;42.148;24.744;2023-04-15T00:44:41;4.20;;;3.08;;
48951;SDS011;34758;42.148;24.744;2023-04-15T00:47:09;5.35;;;3.70;;
48951;SDS011;34758;42.148;24.744;2023-04-15T00:49:37;5.18;;;3.25;;
48951;SDS011;34758;42.148;24.744;2023-04-15T00:52:03;4.25;;;3.40;;
48951;SDS011;34758;42.148;24.744;2023-04-15T00:54:30;4.30;;;3.45;;
48951;SDS011;34758;42.148;24.744;2023-04-15T00:56:57;6.10;;;3.20;;
48951;SDS011;34758;42.148;24.744;2023-04-15T00:59:26;5.75;;;2.83;;
48951;SDS011;34758;42.148;24.744;2023-04-15T01:01:53;4.60;;;2.72;;
48951;SDS011;34758;42.148;24.744;2023-04-15T01:04:20;8.02;;;3.22;;
48951;SDS011;34758;42.148;24.744;2023-04-15T01:06:47;5.43;;;2.88;;
48951;SDS011;34758;42.148;24.744;2023-04-15T01:09:14;4.30;;;2.63;;
48951;SDS011;34758;42.148;24.744;2023-04-15T01:11:40;7.22;;;3.25;;
48951;SDS011;34758;42.148;24.744;2023-04-15T01:14:09;5.40;;;2.92;;
48951;SDS011;34758;42.148;24.744;2023-04-15T01:16:37;4.88;;;2.97;;
48951;SDS011;34758;42.148;24.744;2023-04-15T01:19:07;6.35;;;3.42;;
48951;SDS011;34758;42.148;24.744;2023-04-15T01:21:35;5.05;;;3.20;;
48951;SDS011;34758;42.148;24.744;2023-04-15T01:24:02;3.78;;;2.85;;
48951;SDS011;34758;42.148;24.744;2023-04-15T01:26:33;3.10;;;2.65;;
48951;SDS011;34758;42.148;24.744;2023-04-15T01:29:00;6.38;;;3.10;;
48951;SDS011;34758;42.148;24.744;2023-04-15T01:31:27;4.93;;;3.35;;
48951;SDS011;34758;42.148;24.744;2023-04-15T01:33:54;3.78;;;3.10;;
48951;SDS011;34758;42.148;24.744;2023-04-15T01:36:22;5.00;;;2.70;;
48951;SDS011;34758;42.148;24.744;2023-04-15T01:38:49;2.58;;;2.20;;
48951;SDS011;34758;42.148;24.744;2023-04-15T01:41:20;7.60;;;2.85;;
48951;SDS011;34758;42.148;24.744;2023-04-15T01:43:50;3.92;;;2.20;;
48951;SDS011;34758;42.148;24.744;2023-04-15T01:46:17;4.00;;;2.25;;
48951;SDS011;34758;42.148;24.744;2023-04-15T01:48:44;3.92;;;2.40;;
48951;SDS011;34758;42.148;24.744;2023-04-15T01:51:11;4.20;;;2.47;;
48951;SDS011;34758;42.148;24.744;2023-04-15T01:53:38;3.83;;;2.40;;
48951;SDS011;34758;42.148;24.744;2023-04-15T01:56:05;3.53;;;2.33;;
48951;SDS011;34758;42.148;24.744;2023-04-15T01:58:32;4.90;;;2.30;;
48951;SDS011;34758;42.148;24.744;2023-04-15T02:01:01;3.13;;;2.15;;
48951;SDS011;34758;42.148;24.744;2023-04-15T02:03:28;3.25;;;2.30;;
48951;SDS011;34758;42.148;24.744;2023-04-15T02:05:55;4.10;;;2.28;;
48951;SDS011;34758;42.148;24.744;2023-04-15T02:08:22;3.28;;;2.20;;
48951;SDS011;34758;42.148;24.744;2023-04-15T02:10:49;4.47;;;2.40;;
48951;SDS011;34758;42.148;24.744;2023-04-15T02:13:16;2.13;;;1.50;;
48951;SDS011;34758;42.148;24.744;2023-04-15T02:15:46;2.30;;;1.60;;
48951;SDS011;34758;42.148;24.744;2023-04-15T02:18:15;2.80;;;2.05;;
48951;SDS011;34758;42.148;24.744;2023-04-15T02:20:42;2.30;;;1.70;;
48951;SDS011;34758;42.148;24.744;2023-04-15T02:23:09;4.07;;;1.67;;
48951;SDS011;34758;42.148;24.744;2023-04-15T02:25:36;2.55;;;1.42;;
48951;SDS011;34758;42.148;24.744;2023-04-15T02:28:04;3.42;;;1.63;;
48951;SDS011;34758;42.148;24.744;2023-04-15T02:30:31;3.08;;;1.50;;
48951;SDS011;34758;42.148;24.744;2023-04-15T02:32:59;2.35;;;1.50;;
48951;SDS011;34758;42.148;24.744;2023-04-15T02:35:28;3.35;;;1.75;;
48951;SDS011;34758;42.148;24.744;2023-04-15T02:37:55;2.15;;;1.17;;
48951;SDS011;34758;42.148;24.744;2023-04-15T02:40:22;1.50;;;1.00;;
48951;SDS011;34758;42.148;24.744;2023-04-15T02:42:49;4.25;;;1.40;;
48951;SDS011;34758;42.148;24.744;2023-04-15T02:45:16;1.80;;;0.90;;
48951;SDS011;34758;42.148;24.744;2023-04-15T02:47:45;2.72;;;0.98;;
48951;SDS011;34758;42.148;24.744;2023-04-15T02:50:12;1.55;;;0.93;;
48951;SDS011;34758;42.148;24.744;2023-04-15T02:52:41;3.45;;;1.00;;
48951;SDS011;34758;42.148;24.744;2023-04-15T02:55:08;5.20;;;1.10;;
48951;SDS011;34758;42.148;24.744;2023-04-15T02:57:37;1.55;;;1.05;;
48951;SDS011;34758;42.148;24.744;2023-04-15T03:00:06;3.17;;;1.10;;
48951;SDS011;34758;42.148;24.744;2023-04-15T03:02:36;1.73;;;1.13;;
48951;SDS011;34758;42.148;24.744;2023-04-15T03:05:04;2.60;;;1.63;;
48951;SDS011;34758;42.148;24.744;2023-04-15T03:07:32;2.92;;;1.25;;
48951;SDS011;34758;42.148;24.744;2023-04-15T03:10:01;4.20;;;1.30;;
48951;SDS011;34758;42.148;24.744;2023-04-15T03:12:28;2.67;;;1.15;;
48951;SDS011;34758;42.148;24.744;2023-04-15T03:14:55;3.58;;;0.88;;
48951;SDS011;34758;42.148;24.744;2023-04-15T03:17:26;3.60;;;1.10;;
48951;SDS011;34758;42.148;24.744;2023-04-15T03:19:53;3.05;;;1.42;;
48951;SDS011;34758;42.148;24.744;2023-04-15T03:22:20;5.65;;;1.65;;
48951;SDS011;34758;42.148;24.744;2023-04-15T03:24:47;4.22;;;1.33;;
48951;SDS011;34758;42.148;24.744;2023-04-15T03:27:16;4.05;;;1.50;;
48951;SDS011;34758;42.148;24.744;2023-04-15T03:29:43;3.28;;;1.30;;
48951;SDS011;34758;42.148;24.744;2023-04-15T03:32:10;3.97;;;1.50;;
48951;SDS011;34758;42.148;24.744;2023-04-15T03:34:39;2.85;;;1.20;;
48951;SDS011;34758;42.148;24.744;2023-04-15T03:37:06;3.17;;;1.30;;
48951;SDS011;34758;42.148;24.744;2023-04-15T03:39:34;3.10;;;1.70;;
48951;SDS011;34758;42.148;24.744;2023-04-15T03:42:01;6.13;;;2.90;;
48951;SDS011;34758;42.148;24.744;2023-04-15T03:44:30;4.25;;;1.70;;
48951;SDS011;34758;42.148;24.744;2023-04-15T03:46:57;2.70;;;1.75;;
48951;SDS011;34758;42.148;24.744;2023-04-15T03:49:23;3.83;;;1.35;;
48951;SDS011;34758;42.148;24.744;2023-04-15T03:51:51;2.38;;;1.30;;
48951;SDS011;34758;42.148;24.744;2023-04-15T03:54:17;2.10;;;1.40;;
48951;SDS011;34758;42.148;24.744;2023-04-15T03:56:45;2.15;;;1.40;;
48951;SDS011;34758;42.148;24.744;2023-04-15T03:59:12;3.33;;;1.30;;
48951;SDS011;34758;42.148;24.744;2023-04-15T04:01:42;2.17;;;1.25;;
48951;SDS011;34758;42.148;24.744;2023-04-15T04:04:09;3.75;;;1.58;;
48951;SDS011;34758;42.148;24.744;2023-04-15T04:06:36;2.83;;;1.42;;
48951;SDS011;34758;42.148;24.744;2023-04-15T04:09:02;2.75;;;1.20;;
48951;SDS011;34758;42.148;24.744;2023-04-15T04:11:30;4.30;;;1.40;;
48951;SDS011;34758;42.148;24.744;2023-04-15T04:13:57;2.97;;;1.33;;
48951;SDS011;34758;42.148;24.744;2023-04-15T04:16:24;2.25;;;1.30;;
48951;SDS011;34758;42.148;24.744;2023-04-15T04:18:52;2.67;;;1.10;;
48951;SDS011;34758;42.148;24.744;2023-04-15T04:21:19;1.80;;;1.10;;
48951;SDS011;34758;42.148;24.744;2023-04-15T04:23:46;3.22;;;1.10;;
48951;SDS011;34758;42.148;24.744;2023-04-15T04:26:13;2.47;;;1.05;;
48951;SDS011;34758;42.148;24.744;2023-04-15T04:28:40;2.80;;;0.93;;
48951;SDS011;34758;42.148;24.744;2023-04-15T04:31:07;3.25;;;1.33;;
48951;SDS011;34758;42.148;24.744;2023-04-15T04:33:34;15.05;;;1.83;;
48951;SDS011;34758;42.148;24.744;2023-04-15T04:36:03;3.15;;;1.40;;
48951;SDS011;34758;42.148;24.744;2023-04-15T04:38:31;2.72;;;1.20;;
48951;SDS011;34758;42.148;24.744;2023-04-15T04:40:58;2.70;;;1.20;;
48951;SDS011;34758;42.148;24.744;2023-04-15T04:43:24;2.58;;;1.60;;
48951;SDS011;34758;42.148;24.744;2023-04-15T04:45:52;1.42;;;1.10;;
48951;SDS011;34758;42.148;24.744;2023-04-15T04:48:19;2.17;;;1.23;;
48951;SDS011;34758;42.148;24.744;2023-04-15T04:50:47;1.83;;;1.10;;
48951;SDS011;34758;42.148;24.744;2023-04-15T04:53:15;4.88;;;0.75;;
48951;SDS011;34758;42.148;24.744;2023-04-15T04:55:42;4.18;;;1.17;;
48951;SDS011;34758;42.148;24.744;2023-04-15T04:58:09;2.95;;;0.90;;
48951;SDS011;34758;42.148;24.744;2023-04-15T05:00:36;5.22;;;1.88;;
48951;SDS011;34758;42.148;24.744;2023-04-15T05:03:03;3.22;;;1.25;;
48951;SDS011;34758;42.148;24.744;2023-04-15T05:05:31;3.03;;;1.40;;
48951;SDS011;34758;42.148;24.744;2023-04-15T05:07:59;2.50;;;1.45;;
48951;SDS011;34758;42.148;24.744;2023-04-15T05:10:28;3.42;;;1.45;;
48951;SDS011;34758;42.148;24.744;2023-04-15T05:12:54;4.32;;;1.45;;
48951;SDS011;34758;42.148;24.744;2023-04-15T05:15:22;2.17;;;1.35;;
48951;SDS011;34758;42.148;24.744;2023-04-15T05:17:49;3.58;;;1.50;;
48951;SDS011;34758;42.148;24.744;2023-04-15T05:20:16;5.20;;;1.30;;
48951;SDS011;34758;42.148;24.744;2023-04-15T05:22:43;6.40;;;1.58;;
48951;SDS011;34758;42.148;24.744;2023-04-15T05:25:10;4.28;;;1.30;;
48951;SDS011;34758;42.148;24.744;2023-04-15T05:27:38;2.85;;;1.60;;
48951;SDS011;34758;42.148;24.744;2023-04-15T05:30:06;4.13;;;1.73;;
48951;SDS011;34758;42.148;24.744;2023-04-15T05:32:35;4.47;;;2.38;;
48951;SDS011;34758;42.148;24.744;2023-04-15T05:35:01;5.93;;;1.58;;
48951;SDS011;34758;42.148;24.744;2023-04-15T05:37:29;3.35;;;1.40;;
48951;SDS011;34758;42.148;24.744;2023-04-15T05:39:56;3.45;;;1.50;;
48951;SDS011;34758;42.148;24.744;2023-04-15T05:42:23;2.85;;;1.05;;
48951;SDS011;34758;42.148;24.744;2023-04-15T05:44:51;3.65;;;1.55;;
48951;SDS011;34758;42.148;24.744;2023-04-15T05:47:18;2.08;;;1.13;;
48951;SDS011;34758;42.148;24.744;2023-04-15T05:49:46;2.63;;;1.00;;
48951;SDS011;34758;42.148;24.744;2023-04-15T05:52:13;2.03;;;0.90;;
48951;SDS011;34758;42.148;24.744;2023-04-15T05:54:40;2.72;;;0.82;;
48951;SDS011;34758;42.148;24.744;2023-04-15T05:57:07;10.30;;;1.52;;
48951;SDS011;34758;42.148;24.744;2023-04-15T05:59:34;2.15;;;0.85;;
48951;SDS011;34758;42.148;24.744;2023-04-15T06:02:04;4.47;;;0.90;;
48951;SDS011;34758;42.148;24.744;2023-04-15T06:04:31;2.53;;;1.08;;
48951;SDS011;34758;42.148;24.744;2023-04-15T06:06:58;5.05;;;0.90;;
48951;SDS011;34758;42.148;24.744;2023-04-15T06:09:26;2.33;;;1.05;;
48951;SDS011;34758;42.148;24.744;2023-04-15T06:11:53;1.95;;;0.88;;
48951;SDS011;34758;42.148;24.744;2023-04-15T06:14:20;1.90;;;1.00;;
48951;SDS011;34758;42.148;24.744;2023-04-15T06:16:47;3.92;;;1.13;;
48951;SDS011;34758;42.148;24.744;2023-04-15T06:19:15;6.53;;;1.50;;
48951;SDS011;34758;42.148;24.744;2023-04-15T06:21:43;3.13;;;1.17;;
48951;SDS011;34758;42.148;24.744;2023-04-15T06:24:10;2.25;;;0.90;;
48951;SDS011;34758;42.148;24.744;2023-04-15T06:26:38;4.00;;;0.80;;
48951;SDS011;34758;42.148;24.744;2023-04-15T06:29:06;3.40;;;0.77;;
48951;SDS011;34758;42.148;24.744;2023-04-15T06:31:33;2.17;;;0.70;;
48951;SDS011;34758;42.148;24.744;2023-04-15T06:34:00;5.40;;;0.98;;
48951;SDS011;34758;42.148;24.744;2023-04-15T06:36:28;3.85;;;0.90;;
48951;SDS011;34758;42.148;24.744;2023-04-15T06:38:56;17.30;;;1.90;;
48951;SDS011;34758;42.148;24.744;2023-04-15T06:41:23;5.97;;;1.95;;
48951;SDS011;34758;42.148;24.744;2023-04-15T06:43:50;2.60;;;1.05;;
48951;SDS011;34758;42.148;24.744;2023-04-15T06:46:20;4.53;;;0.88;;
48951;SDS011;34758;42.148;24.744;2023-04-15T06:48:47;4.45;;;0.90;;
48951;SDS011;34758;42.148;24.744;2023-04-15T06:51:14;4.75;;;1.23;;
48951;SDS011;34758;42.148;24.744;2023-04-15T06:53:43;3.72;;;1.15;;
48951;SDS011;34758;42.148;24.744;2023-04-15T06:56:09;3.97;;;0.95;;
48951;SDS011;34758;42.148;24.744;2023-04-15T06:58:36;3.85;;;2.03;;
48951;SDS011;34758;42.148;24.744;2023-04-15T07:01:03;4.45;;;1.30;;
48951;SDS011;34758;42.148;24.744;2023-04-15T07:03:31;3.05;;;1.50;;
48951;SDS011;34758;42.148;24.744;2023-04-15T07:05:58;5.40;;;1.20;;
48951;SDS011;34758;42.148;24.744;2023-04-15T07:08:25;3.25;;;1.20;;
48951;SDS011;34758;42.148;24.744;2023-04-15T07:10:54;5.10;;;1.70;;
48951;SDS011;34758;42.148;24.744;2023-04-15T07:13:21;3.65;;;1.80;;
48951;SDS011;34758;42.148;24.744;2023-04-15T07:15:49;5.07;;;1.65;;
48951;SDS011;34758;42.148;24.744;2023-04-15T07:18:16;6.10;;;1.83;;
48951;SDS011;34758;42.148;24.744;2023-04-15T07:20:43;5.90;;;1.80;;
48951;SDS011;34758;42.148;24.744;2023-04-15T07:23:10;7.88;;;3.97;;
48951;SDS011;34758;42.148;24.744;2023-04-15T07:25:37;5.00;;;2.05;;
48951;SDS011;34758;42.148;24.744;2023-04-15T07:28:05;3.92;;;1.70;;
48951;SDS011;34758;42.148;24.744;2023-04-15T07:30:32;5.40;;;2.45;;
48951;SDS011;34758;42.148;24.744;2023-04-15T07:33:00;6.10;;;2.25;;
48951;SDS011;34758;42.148;24.744;2023-04-15T07:35:28;7.85;;;2.38;;
48951;SDS011;34758;42.148;24.744;2023-04-15T07:37:55;4.78;;;2.25;;
48951;SDS011;34758;42.148;24.744;2023-04-15T07:40:22;3.50;;;2.10;;
48951;SDS011;34758;42.148;24.744;2023-04-15T07:42:49;3.97;;;2.50;;
48951;SDS011;34758;42.148;24.744;2023-04-15T07:45:18;3.97;;;2.17;;
48951;SDS011;34758;42.148;24.744;2023-04-15T07:47:45;4.57;;;1.45;;
48951;SDS011;34758;42.148;24.744;2023-04-15T07:50:13;5.70;;;1.88;;
48951;SDS011;34758;42.148;24.744;2023-04-15T07:52:41;5.47;;;1.40;;
48951;SDS011;34758;42.148;24.744;2023-04-15T07:55:08;3.83;;;1.90;;
48951;SDS011;34758;42.148;24.744;2023-04-15T07:57:35;2.35;;;1.70;;
48951;SDS011;34758;42.148;24.744;2023-04-15T08:00:03;3.25;;;1.95;;
48951;SDS011;34758;42.148;24.744;2023-04-15T08:02:34;4.00;;;1.85;;
48951;SDS011;34758;42.148;24.744;2023-04-15T08:05:00;3.83;;;1.90;;
48951;SDS011;34758;42.148;24.744;2023-04-15T08:07:28;6.60;;;2.25;;
48951;SDS011;34758;42.148;24.744;2023-04-15T08:09:56;4.78;;;2.30;;
48951;SDS011;34758;42.148;24.744;2023-04-15T08:12:23;3.15;;;1.48;;
48951;SDS011;34758;42.148;24.744;2023-04-15T08:14:50;3.67;;;1.45;;
48951;SDS011;34758;42.148;24.744;2023-04-15T08:17:18;4.95;;;2.47;;
48951;SDS011;34758;42.148;24.744;2023-04-15T08:19:48;4.68;;;1.60;;
48951;SDS011;34758;42.148;24.744;2023-04-15T08:22:15;2.92;;;1.90;;
48951;SDS011;34758;42.148;24.744;2023-04-15T08:24:42;5.53;;;2.30;;
48951;SDS011;34758;42.148;24.744;2023-04-15T08:27:09;3.70;;;2.20;;
48951;SDS011;34758;42.148;24.744;2023-04-15T08:29:37;5.85;;;2.22;;
48951;SDS011;34758;42.148;24.744;2023-04-15T08:32:04;5.38;;;2.38;;
48951;SDS011;34758;42.148;24.744;2023-04-15T08:34:31;4.97;;;1.83;;
48951;SDS011;34758;42.148;24.744;2023-04-15T08:37:00;6.50;;;2.40;;
48951;SDS011;34758;42.148;24.744;2023-04-15T08:39:28;2.45;;;1.55;;
48951;SDS011;34758;42.148;24.744;2023-04-15T08:41:55;4.93;;;2.05;;
48951;SDS011;34758;42.148;24.744;2023-04-15T08:44:24;4.05;;;1.63;;
48951;SDS011;34758;42.148;24.744;2023-04-15T08:46:52;3.90;;;1.90;;
48951;SDS011;34758;42.148;24.744;2023-04-15T08:49:20;5.18;;;2.83;;
48951;SDS011;34758;42.148;24.744;2023-04-15T08:51:48;4.97;;;2.17;;
48951;SDS011;34758;42.148;24.744;2023-04-15T08:54:16;8.13;;;2.60;;
48951;SDS011;34758;42.148;24.744;2023-04-15T08:56:44;5.00;;;2.50;;
48951;SDS011;34758;42.148;24.744;2023-04-15T08:59:11;6.35;;;2.10;;
48951;SDS011;34758;42.148;24.744;2023-04-15T09:01:39;3.72;;;2.20;;
48951;SDS011;34758;42.148;24.744;2023-04-15T09:04:06;8.32;;;2.45;;
48951;SDS011;34758;42.148;24.744;2023-04-15T09:06:33;6.38;;;2.25;;
48951;SDS011;34758;42.148;24.744;2023-04-15T09:09:01;3.63;;;1.70;;
48951;SDS011;34758;42.148;24.744;2023-04-15T09:11:30;5.60;;;1.90;;
48951;SDS011;34758;42.148;24.744;2023-04-15T09:13:57;8.95;;;2.47;;
48951;SDS011;34758;42.148;24.744;2023-04-15T09:16:24;3.67;;;2.13;;
48951;SDS011;34758;42.148;24.744;2023-04-15T09:18:52;3.45;;;2.38;;
48951;SDS011;34758;42.148;24.744;2023-04-15T09:21:19;4.15;;;2.10;;
48951;SDS011;34758;42.148;24.744;2023-04-15T09:23:54;3.25;;;1.58;;
48951;SDS011;34758;42.148;24.744;2023-04-15T09:26:33;4.10;;;2.05;;
48951;SDS011;34758;42.148;24.744;2023-04-15T09:29:02;6.93;;;2.50;;
48951;SDS011;34758;42.148;24.744;2023-04-15T09:31:31;4.43;;;2.50;;
48951;SDS011;34758;42.148;24.744;2023-04-15T09:33:58;7.40;;;2.70;;
48951;SDS011;34758;42.148;24.744;2023-04-15T09:36:25;3.85;;;1.70;;
48951;SDS011;34758;42.148;24.744;2023-04-15T09:38:54;4.05;;;1.50;;
48951;SDS011;34758;42.148;24.744;2023-04-15T09:41:22;5.93;;;2.13;;
48951;SDS011;34758;42.148;24.744;2023-04-15T09:43:50;4.93;;;1.95;;
48951;SDS011;34758;42.148;24.744;2023-04-15T09:46:18;4.15;;;2.05;;
48951;SDS011;34758;42.148;24.744;2023-04-15T09:48:45;6.18;;;3.17;;
48951;SDS011;34758;42.148;24.744;2023-04-15T09:51:12;4.28;;;1.98;;
48951;SDS011;34758;42.148;24.744;2023-04-15T09:53:41;4.88;;;2.00;;
48951;SDS011;34758;42.148;24.744;2023-04-15T09:56:10;4.78;;;1.80;;
48951;SDS011;34758;42.148;24.744;2023-04-15T09:58:37;2.83;;;2.17;;
48951;SDS011;34758;42.148;24.744;2023-04-15T10:01:08;3.95;;;1.20;;
48951;SDS011;34758;42.148;24.744;2023-04-15T10:03:38;5.00;;;2.20;;
48951;SDS011;34758;42.148;24.744;2023-04-15T10:06:06;6.90;;;3.90;;
48951;SDS011;34758;42.148;24.744;2023-04-15T10:08:34;4.07;;;2.05;;
48951;SDS011;34758;42.148;24.744;2023-04-15T10:11:01;3.88;;;2.90;;
48951;SDS011;34758;42.148;24.744;2023-04-15T10:13:29;3.92;;;1.38;;
48951;SDS011;34758;42.148;24.744;2023-04-15T10:16:04;2.75;;;0.82;;
48951;SDS011;34758;42.148;24.744;2023-04-15T10:18:34;3.42;;;1.17;;
48951;SDS011;34758;42.148;24.744;2023-04-15T10:21:04;3.03;;;0.68;;
48951;SDS011;34758;42.148;24.744;2023-04-15T10:23:31;2.25;;;0.80;;
48951;SDS011;34758;42.148;24.744;2023-04-15T10:25:58;3.83;;;0.82;;
48951;SDS011;34758;42.148;24.744;2023-04-15T10:28:25;4.78;;;1.27;;
48951;SDS011;34758;42.148;24.744;2023-04-15T10:30:54;4.03;;;1.73;;
48951;SDS011;34758;42.148;24.744;2023-04-15T10:33:21;3.00;;;2.17;;
48951;SDS011;34758;42.148;24.744;2023-04-15T10:35:51;4.60;;;2.00;;
48951;SDS011;34758;42.148;24.744;2023-04-15T10:38:31;3.20;;;1.70;;
48951;SDS011;34758;42.148;24.744;2023-04-15T10:41:16;2.65;;;1.60;;
48951;SDS011;34758;42.148;24.744;2023-04-15T10:43:44;3.63;;;1.25;;
48951;SDS011;34758;42.148;24.744;2023-04-15T10:46:13;4.82;;;1.35;;
48951;SDS011;34758;42.148;24.744;2023-04-15T10:48:47;5.70;;;2.07;;
48951;SDS011;34758;42.148;24.744;2023-04-15T10:51:17;3.70;;;3.13;;
48951;SDS011;34758;42.148;24.744;2023-04-15T10:53:55;6.53;;;3.10;;
48951;SDS011;34758;42.148;24.744;2023-04-15T10:56:23;7.47;;;4.60;;
48951;SDS011;34758;42.148;24.744;2023-04-15T10:58:49;5.68;;;4.03;;
48951;SDS011;34758;42.148;24.744;2023-04-15T11:01:18;5.40;;;4.00;;
48951;SDS011;34758;42.148;24.744;2023-04-15T11:03:47;4.30;;;2.57;;
48951;SDS011;34758;42.148;24.744;2023-04-15T11:06:16;5.45;;;3.03;;
48951;SDS011;34758;42.148;24.744;2023-04-15T11:08:54;7.03;;;3.67;;
48951;SDS011;34758;42.148;24.744;2023-04-15T11:14:25;5.57;;;4.25;;
48951;SDS011;34758;42.148;24.744;2023-04-15T11:16:52;5.93;;;3.67;;
48951;SDS011;34758;42.148;24.744;2023-04-15T11:19:20;4.45;;;3.35;;
48951;SDS011;34758;42.148;24.744;2023-04-15T11:21:48;4.90;;;3.47;;
48951;SDS011;34758;42.148;24.744;2023-04-15T11:24:24;5.35;;;3.15;;
48951;SDS011;34758;42.148;24.744;2023-04-15T11:26:56;6.13;;;3.50;;
48951;SDS011;34758;42.148;24.744;2023-04-15T11:29:27;6.18;;;3.22;;
48951;SDS011;34758;42.148;24.744;2023-04-15T11:32:00;5.88;;;2.63;;
48951;SDS011;34758;42.148;24.744;2023-04-15T11:34:31;4.40;;;2.97;;
48951;SDS011;34758;42.148;24.744;2023-04-15T11:37:03;4.20;;;2.90;;
48951;SDS011;34758;42.148;24.744;2023-04-15T11:39:32;4.97;;;3.28;;
48951;SDS011;34758;42.148;24.744;2023-04-15T11:41:59;4.57;;;2.40;;
48951;SDS011;34758;42.148;24.744;2023-04-15T11:44:26;4.50;;;3.10;;
48951;SDS011;34758;42.148;24.744;2023-04-15T11:46:53;7.22;;;3.10;;
48951;SDS011;34758;42.148;24.744;2023-04-15T11:49:27;6.32;;;3.35;;
48951;SDS011;34758;42.148;24.744;2023-04-15T11:51:55;6.25;;;3.55;;
48951;SDS011;34758;42.148;24.744;2023-04-15T11:54:23;4.88;;;2.90;;
48951;SDS011;34758;42.148;24.744;2023-04-15T11:56:50;5.78;;;3.10;;
48951;SDS011;34758;42.148;24.744;2023-04-15T11:59:18;7.32;;;3.72;;
48951;SDS011;34758;42.148;24.744;2023-04-15T12:01:45;4.38;;;2.60;;
48951;SDS011;34758;42.148;24.744;2023-04-15T12:04:13;5.03;;;2.85;;
48951;SDS011;34758;42.148;24.744;2023-04-15T12:06:41;9.85;;;4.03;;
48951;SDS011;34758;42.148;24.744;2023-04-15T12:09:10;9.52;;;3.90;;
48951;SDS011;34758;42.148;24.744;2023-04-15T12:11:40;5.95;;;3.25;;
48951;SDS011;34758;42.148;24.744;2023-04-15T12:14:10;6.15;;;2.95;;
48951;SDS011;34758;42.148;24.744;2023-04-15T12:16:39;3.22;;;2.33;;
48951;SDS011;34758;42.148;24.744;2023-04-15T12:19:08;6.70;;;2.53;;
48951;SDS011;34758;42.148;24.744;2023-04-15T12:21:37;4.30;;;2.40;;
48951;SDS011;34758;42.148;24.744;2023-04-15T12:24:06;4.55;;;2.25;;
48951;SDS011;34758;42.148;24.744;2023-04-15T12:26:36;4.28;;;1.83;;
48951;SDS011;34758;42.148;24.744;2023-04-15T12:29:05;4.57;;;2.40;;
48951;SDS011;34758;42.148;24.744;2023-04-15T12:31:34;6.10;;;2.35;;
48951;SDS011;34758;42.148;24.744;2023-04-15T12:34:02;5.28;;;2.08;;
48951;SDS011;34758;42.148;24.744;2023-04-15T12:36:29;4.35;;;1.70;;
48951;SDS011;34758;42.148;24.744;2023-04-15T12:39:00;6.22;;;1.92;;
48951;SDS011;34758;42.148;24.744;2023-04-15T12:41:28;4.28;;;1.75;;
48951;SDS011;34758;42.148;24.744;2023-04-15T12:43:56;5.45;;;2.55;;
48951;SDS011;34758;42.148;24.744;2023-04-15T12:46:27;2.88;;;1.13;;
48951;SDS011;34758;42.148;24.744;2023-04-15T12:51:22;5.72;;;2.70;;
48951;SDS011;34758;42.148;24.744;2023-04-15T12:53:51;3.05;;;0.90;;
48951;SDS011;34758;42.148;24.744;2023-04-15T12:56:18;3.83;;;1.55;;
48951;SDS011;34758;42.148;24.744;2023-04-15T12:58:45;3.95;;;2.53;;
48951;SDS011;34758;42.148;24.744;2023-04-15T13:01:12;4.18;;;1.45;;
48951;SDS011;34758;42.148;24.744;2023-04-15T13:03:41;7.00;;;1.90;;
48951;SDS011;34758;42.148;24.744;2023-04-15T13:06:07;6.47;;;2.20;;
48951;SDS011;34758;42.148;24.744;2023-04-15T13:08:37;4.18;;;2.22;;
48951;SDS011;34758;42.148;24.744;2023-04-15T13:11:07;5.88;;;2.08;;
48951;SDS011;34758;42.148;24.744;2023-04-15T13:13:34;3.97;;;1.50;;
48951;SDS011;34758;42.148;24.744;2023-04-15T13:16:01;3.50;;;1.25;;
48951;SDS011;34758;42.148;24.744;2023-04-15T13:18:28;4.90;;;0.90;;
48951;SDS011;34758;42.148;24.744;2023-04-15T13:21:00;4.88;;;1.30;;
48951;SDS011;34758;42.148;24.744;2023-04-15T13:23:27;6.25;;;3.10;;
48951;SDS011;34758;42.148;24.744;2023-04-15T13:25:56;5.22;;;1.80;;
48951;SDS011;34758;42.148;24.744;2023-04-15T13:28:24;3.40;;;1.25;;
48951;SDS011;34758;42.148;24.744;2023-04-15T13:30:51;4.15;;;1.50;;
48951;SDS011;34758;42.148;24.744;2023-04-15T13:33:21;3.67;;;1.00;;
48951;SDS011;34758;42.148;24.744;2023-04-15T13:35:48;3.88;;;1.27;;
48951;SDS011;34758;42.148;24.744;2023-04-15T13:38:17;6.85;;;1.77;;
48951;SDS011;34758;42.148;24.744;2023-04-15T13:40:44;7.68;;;2.75;;
48951;SDS011;34758;42.148;24.744;2023-04-15T13:43:13;3.63;;;1.70;;
48951;SDS011;34758;42.148;24.744;2023-04-15T13:45:41;7.88;;;1.40;;
48951;SDS011;34758;42.148;24.744;2023-04-15T13:48:08;3.92;;;1.92;;
48951;SDS011;34758;42.148;24.744;2023-04-15T13:50:35;3.55;;;0.98;;
48951;SDS011;34758;42.148;24.744;2023-04-15T13:53:02;3.67;;;0.90;;
48951;SDS011;34758;42.148;24.744;2023-04-15T13:55:32;3.72;;;0.93;;
48951;SDS011;34758;42.148;24.744;2023-04-15T13:58:00;6.38;;;1.63;;
48951;SDS011;34758;42.148;24.744;2023-04-15T14:00:28;2.83;;;1.30;;
48951;SDS011;34758;42.148;24.744;2023-04-15T14:02:55;4.03;;;1.48;;
48951;SDS011;34758;42.148;24.744;2023-04-15T14:05:23;6.20;;;2.33;;
48951;SDS011;34758;42.148;24.744;2023-04-15T14:07:49;5.68;;;1.70;;
48951;SDS011;34758;42.148;24.744;2023-04-15T14:10:17;6.95;;;1.98;;
48951;SDS011;34758;42.148;24.744;2023-04-15T14:12:47;3.50;;;1.55;;
48951;SDS011;34758;42.148;24.744;2023-04-15T14:15:14;3.20;;;1.42;;
48951;SDS011;34758;42.148;24.744;2023-04-15T14:17:41;5.20;;;2.42;;
48951;SDS011;34758;42.148;24.744;2023-04-15T14:20:08;5.05;;;1.35;;
48951;SDS011;34758;42.148;24.744;2023-04-15T14:22:36;5.45;;;1.42;;
48951;SDS011;34758;42.148;24.744;2023-04-15T14:25:03;4.50;;;1.52;;
48951;SDS011;34758;42.148;24.744;2023-04-15T14:27:31;3.08;;;1.50;;
48951;SDS011;34758;42.148;24.744;2023-04-15T14:29:59;4.57;;;2.10;;
48951;SDS011;34758;42.148;24.744;2023-04-15T14:32:26;3.00;;;0.82;;
48951;SDS011;34758;42.148;24.744;2023-04-15T14:34:53;4.15;;;1.48;;
48951;SDS011;34758;42.148;24.744;2023-04-15T14:37:20;5.47;;;1.48;;
48951;SDS011;34758;42.148;24.744;2023-04-15T14:39:47;6.10;;;1.60;;
48951;SDS011;34758;42.148;24.744;2023-04-15T14:42:14;2.30;;;1.00;;